Time;durP1;ratioP1;P1;durP2;ratioP2;P2;SDS_P1;SDS_P2;PMS_P1;PMS_P2;Temp;Humidity;BMP_temperature;BMP_pressure;BME280_temperature;BME280_humidity;BME280_pressure;Samples;Min_cycle;Max_cycle;Signal;HPM_P1;HPM_P2
2024/01/21 00:01:42;;;;;;;0.10;0.10;;;-5.10;99.90;;;;;;5090717;28;20179;-64
2024/01/21 00:04:08;;;;;;;0.00;0.00;;;-5.10;99.90;;;;;;5090442;28;20203;-64
2024/01/21 00:06:34;;;;;;;0.43;0.43;;;-5.10;99.90;;;;;;5090343;28;20188;-64
2024/01/21 00:09:00;;;;;;;0.00;0.00;;;-5.10;99.90;;;;;;5090456;28;20510;-64
2024/01/21 00:11:25;;;;;;;0.00;0.00;;;-5.20;99.90;;;;;;5090812;28;20176;-64
2024/01/21 00:13:51;;;;;;;0.00;0.00;;;-5.20;99.90;;;;;;5090224;28;20183;-63
2024/01/21 00:16:16;;;;;;;0.00;0.00;;;-5.20;99.90;;;;;;5072860;28;20692;-62
2024/01/21 00:18:42;;;;;;;0.37;0.37;;;-5.30;99.90;;;;;;5089767;28;20188;-62
2024/01/21 00:21:07;;;;;;;0.00;0.00;;;-5.30;99.90;;;;;;5090872;28;20172;-63
2024/01/21 00:23:33;;;;;;;0.10;0.10;;;-5.30;99.90;;;;;;5090979;28;20238;-62
2024/01/21 00:25:58;;;;;;;0.00;0.00;;;-5.30;99.90;;;;;;5089660;28;20212;-64
2024/01/21 00:28:24;;;;;;;0.10;0.10;;;-5.30;99.90;;;;;;5090965;28;20182;-63
2024/01/21 00:30:50;;;;;;;0.00;0.00;;;-5.30;99.90;;;;;;5089394;28;20176;-62
2024/01/21 00:33:16;;;;;;;0.00;0.00;;;-5.30;99.90;;;;;;5090356;28;20507;-62
2024/01/21 00:35:42;;;;;;;0.13;0.13;;;-5.40;99.90;;;;;;5088768;28;20230;-62
2024/01/21 00:38:07;;;;;;;0.10;0.10;;;-5.40;99.90;;;;;;5090398;28;20183;-63
2024/01/21 00:40:33;;;;;;;0.27;0.27;;;-5.40;99.90;;;;;;5089936;28;20605;-62
2024/01/21 00:42:59;;;;;;;0.10;0.10;;;-5.50;99.90;;;;;;5090726;28;20172;-63
2024/01/21 00:45:26;;;;;;;0.00;0.00;;;-5.50;99.90;;;;;;5090887;28;20218;-63
2024/01/21 00:47:51;;;;;;;0.00;0.00;;;-5.50;99.90;;;;;;5090521;28;20184;-63
2024/01/21 00:50:17;;;;;;;0.00;0.00;;;-5.50;99.90;;;;;;5090296;28;20230;-63
2024/01/21 00:52:42;;;;;;;0.03;0.03;;;-5.50;99.90;;;;;;5092925;28;20255;-63
2024/01/21 00:55:08;;;;;;;0.00;0.00;;;-5.50;99.90;;;;;;5094148;28;20678;-63
2024/01/21 00:57:33;;;;;;;0.00;0.00;;;-5.50;99.90;;;;;;5092861;28;20716;-63
2024/01/21 00:59:59;;;;;;;0.00;0.00;;;-5.50;99.90;;;;;;5094338;28;20184;-62
2024/01/21 01:02:24;;;;;;;0.10;0.10;;;-5.50;99.90;;;;;;5093518;28;20207;-63
2024/01/21 01:04:50;;;;;;;0.00;0.00;;;-5.50;99.90;;;;;;5093749;28;20212;-62
2024/01/21 01:07:15;;;;;;;0.00;0.00;;;-5.40;99.90;;;;;;5094093;28;20169;-63
2024/01/21 01:09:42;;;;;;;0.00;0.00;;;-5.40;99.90;;;;;;5094046;28;20655;-62
2024/01/21 01:12:07;;;;;;;0.10;0.10;;;-5.40;99.90;;;;;;5094328;28;20168;-63
2024/01/21 01:14:33;;;;;;;0.00;0.00;;;-5.40;99.90;;;;;;5094120;28;20180;-63
2024/01/21 01:16:59;;;;;;;0.00;0.00;;;-5.40;99.90;;;;;;5094201;28;20187;-62
2024/01/21 01:19:24;;;;;;;0.00;0.00;;;-5.40;99.90;;;;;;5093964;28;20630;-62
2024/01/21 01:21:51;;;;;;;0.97;0.30;;;-5.50;99.90;;;;;;5093975;28;20194;-62
2024/01/21 01:24:16;;;;;;;0.67;0.47;;;-5.50;99.90;;;;;;5093826;28;20212;-62
2024/01/21 01:26:42;;;;;;;0.00;0.00;;;-5.50;99.90;;;;;;5093748;28;20267;-62
2024/01/21 01:29:07;;;;;;;0.00;0.00;;;-5.60;99.90;;;;;;5093830;28;20172;-62
2024/01/21 01:31:33;;;;;;;0.00;0.00;;;-5.60;99.90;;;;;;5093769;28;20192;-63
2024/01/21 01:33:59;;;;;;;0.00;0.00;;;-5.60;99.90;;;;;;5092210;28;20168;-62
2024/01/21 01:36:24;;;;;;;0.00;0.00;;;-5.60;99.90;;;;;;5093930;28;20188;-62
2024/01/21 01:38:50;;;;;;;0.63;0.53;;;-5.50;99.90;;;;;;5093313;28;20287;-63
2024/01/21 01:41:18;;;;;;;0.00;0.00;;;-5.50;99.90;;;;;;5093215;28;20548;-62
2024/01/21 01:43:43;;;;;;;0.00;0.00;;;-5.50;99.90;;;;;;5083971;28;20716;-62
2024/01/21 01:46:09;;;;;;;0.73;0.73;;;-5.40;99.90;;;;;;5093539;28;20271;-62
2024/01/21 01:48:35;;;;;;;0.00;0.00;;;-5.40;99.90;;;;;;5092894;28;20214;-63
2024/01/21 01:51:03;;;;;;;0.40;0.40;;;-5.40;99.90;;;;;;5093446;28;20176;-63
2024/01/21 01:53:29;;;;;;;0.00;0.00;;;-5.40;99.90;;;;;;5093429;28;20176;-63
2024/01/21 01:55:55;;;;;;;0.00;0.00;;;-5.40;99.90;;;;;;5093001;28;20187;-63
2024/01/21 01:58:23;;;;;;;0.00;0.00;;;-5.50;99.90;;;;;;5093112;28;20187;-63
2024/01/21 02:00:49;;;;;;;0.10;0.10;;;-5.50;99.90;;;;;;5092827;28;20175;-62
2024/01/21 02:03:15;;;;;;;0.00;0.00;;;-5.50;99.90;;;;;;5091973;28;20536;-61
2024/01/21 02:05:40;;;;;;;0.10;0.10;;;-5.50;99.90;;;;;;5092844;28;20212;-62
2024/01/21 02:08:06;;;;;;;0.00;0.00;;;-5.60;99.90;;;;;;5093265;28;20172;-62
2024/01/21 02:10:32;;;;;;;0.00;0.00;;;-5.60;99.90;;;;;;5092848;28;20578;-63
2024/01/21 02:12:57;;;;;;;0.00;0.00;;;-5.60;99.90;;;;;;5084238;28;20772;-63
2024/01/21 02:15:23;;;;;;;0.23;0.23;;;-5.50;99.90;;;;;;5092771;28;20184;-62
2024/01/21 02:17:49;;;;;;;0.00;0.00;;;-5.50;99.90;;;;;;5092633;28;20647;-62
2024/01/21 02:20:15;;;;;;;0.00;0.00;;;-5.50;99.90;;;;;;5092743;28;20185;-62
2024/01/21 02:22:42;;;;;;;0.00;0.00;;;-5.60;99.90;;;;;;5092725;28;20654;-63
2024/01/21 02:25:08;;;;;;;0.00;0.00;;;-5.60;99.90;;;;;;5092449;28;20203;-63
2024/01/21 02:27:35;;;;;;;0.20;0.20;;;-5.60;99.90;;;;;;5092261;28;20272;-62
2024/01/21 02:30:00;;;;;;;0.00;0.00;;;-5.60;99.90;;;;;;5092599;28;20172;-62
2024/01/21 02:32:26;;;;;;;0.00;0.00;;;-5.60;99.90;;;;;;5092655;28;20275;-62
2024/01/21 02:34:52;;;;;;;0.00;0.00;;;-5.60;99.90;;;;;;5092147;28;20170;-62
2024/01/21 02:37:18;;;;;;;0.00;0.00;;;-5.70;99.90;;;;;;5092501;28;20176;-62
2024/01/21 02:39:44;;;;;;;0.00;0.00;;;-5.70;99.90;;;;;;5091814;28;20273;-63
2024/01/21 02:42:10;;;;;;;0.00;0.00;;;-5.70;99.90;;;;;;5092155;28;20183;-63
2024/01/21 02:44:35;;;;;;;0.00;0.00;;;-5.70;99.90;;;;;;5092128;28;20246;-62
2024/01/21 02:47:00;;;;;;;0.00;0.00;;;-5.70;99.90;;;;;;5092226;28;20587;-63
2024/01/21 02:49:28;;;;;;;0.00;0.00;;;-5.70;99.90;;;;;;5092148;28;20191;-62
2024/01/21 02:51:55;;;;;;;0.30;0.30;;;-5.70;99.90;;;;;;5092041;28;20192;-63
2024/01/21 02:54:21;;;;;;;0.00;0.00;;;-5.70;99.90;;;;;;5092303;28;20187;-63
2024/01/21 02:56:46;;;;;;;0.00;0.00;;;-5.70;99.90;;;;;;5092064;28;20192;-63
2024/01/21 02:59:12;;;;;;;0.00;0.00;;;-5.70;99.90;;;;;;5092056;28;20267;-63
2024/01/21 03:01:37;;;;;;;0.00;0.00;;;-5.70;99.90;;;;;;5091432;28;20184;-63
2024/01/21 03:04:03;;;;;;;0.00;0.00;;;-5.70;99.90;;;;;;5091511;28;20168;-63
2024/01/21 03:06:28;;;;;;;0.00;0.00;;;-5.80;99.90;;;;;;5088091;28;20548;-62
2024/01/21 03:08:54;;;;;;;0.57;0.57;;;-5.90;99.90;;;;;;5091674;28;20191;-63
2024/01/21 03:11:19;;;;;;;0.30;0.30;;;-5.90;99.90;;;;;;5086443;28;20574;-63
2024/01/21 03:13:45;;;;;;;0.33;0.33;;;-6.00;99.90;;;;;;5091578;28;20184;-63
2024/01/21 03:16:11;;;;;;;0.20;0.20;;;-6.00;99.90;;;;;;5091532;28;20187;-62
2024/01/21 03:18:38;;;;;;;0.00;0.00;;;-6.00;99.90;;;;;;5091793;28;20179;-63
2024/01/21 03:21:06;;;;;;;0.40;0.40;;;-6.00;99.90;;;;;;5107399;28;20183;-63
2024/01/21 03:23:32;;;;;;;0.03;0.03;;;-6.10;99.90;;;;;;5091861;28;20233;-63
2024/01/21 03:25:57;;;;;;;0.00;0.00;;;-6.00;99.90;;;;;;5091512;28;20211;-62
2024/01/21 03:28:23;;;;;;;0.00;0.00;;;-6.10;99.90;;;;;;5091618;28;20176;-62
2024/01/21 03:30:49;;;;;;;2.37;0.30;;;-6.10;99.90;;;;;;5091425;28;20194;-63
2024/01/21 03:33:14;;;;;;;0.30;0.30;;;-6.10;99.90;;;;;;5091188;28;20191;-62
2024/01/21 03:35:40;;;;;;;0.23;0.23;;;-6.10;99.90;;;;;;5090182;28;20184;-62
2024/01/21 03:38:06;;;;;;;0.00;0.00;;;-6.10;99.90;;;;;;5091366;28;20176;-62
2024/01/21 03:40:31;;;;;;;0.20;0.20;;;-6.10;99.90;;;;;;5091250;28;20238;-63
2024/01/21 03:42:57;;;;;;;0.00;0.00;;;-6.10;99.90;;;;;;5123814;27;20200;-63
2024/01/21 03:45:22;;;;;;;0.00;0.00;;;-6.00;99.90;;;;;;5091314;28;20219;-62
2024/01/21 03:47:48;;;;;;;0.00;0.00;;;-6.00;99.90;;;;;;5090657;28;20257;-62
2024/01/21 03:50:18;;;;;;;0.00;0.00;;;-6.00;99.90;;;;;;5091037;28;20199;-63
2024/01/21 03:52:44;;;;;;;0.43;0.43;;;-6.00;99.90;;;;;;5090814;28;20180;-62
2024/01/21 03:55:10;;;;;;;0.00;0.00;;;-6.00;99.90;;;;;;5090795;28;20271;-62
2024/01/21 03:57:36;;;;;;;0.00;0.00;;;-6.00;99.90;;;;;;5090947;28;20263;-62
2024/01/21 04:00:02;;;;;;;0.00;0.00;;;-6.00;99.90;;;;;;5091193;28;20704;-62
2024/01/21 04:02:29;;;;;;;0.00;0.00;;;-6.00;99.90;;;;;;5091173;28;20176;-63
2024/01/21 04:04:55;;;;;;;0.00;0.00;;;-6.00;99.90;;;;;;5089985;28;20357;-63
2024/01/21 04:07:21;;;;;;;0.00;0.00;;;-6.00;99.90;;;;;;5090606;28;20262;-63
2024/01/21 04:09:47;;;;;;;0.00;0.00;;;-6.00;99.90;;;;;;5090606;28;20176;-62
2024/01/21 04:12:13;;;;;;;0.10;0.10;;;-6.00;99.90;;;;;;5090290;28;20176;-63
2024/01/21 04:14:39;;;;;;;0.10;0.10;;;-6.10;99.90;;;;;;5089076;28;20187;-62
2024/01/21 04:17:04;;;;;;;0.23;0.23;;;-6.20;99.90;;;;;;5090678;28;20338;-62
2024/01/21 04:19:30;;;;;;;0.00;0.00;;;-6.20;99.90;;;;;;5090222;28;20270;-62
2024/01/21 04:21:56;;;;;;;0.00;0.00;;;-6.20;99.90;;;;;;5090370;28;20195;-62
2024/01/21 04:24:22;;;;;;;0.00;0.00;;;-6.20;99.90;;;;;;5090510;28;20211;-62
2024/01/21 04:26:47;;;;;;;0.00;0.00;;;-6.20;99.90;;;;;;5090015;28;20504;-62
2024/01/21 04:29:13;;;;;;;0.00;0.00;;;-6.20;99.90;;;;;;5090408;28;20176;-62
2024/01/21 04:31:43;;;;;;;0.10;0.10;;;-6.20;99.90;;;;;;5090406;28;20267;-62
2024/01/21 04:34:09;;;;;;;0.10;0.10;;;-6.30;99.90;;;;;;5090451;28;20266;-63
2024/01/21 04:36:34;;;;;;;0.00;0.00;;;-6.40;99.90;;;;;;5090138;28;20719;-63
2024/01/21 04:39:00;;;;;;;0.10;0.10;;;-6.40;99.90;;;;;;5090407;28;20212;-63
2024/01/21 04:41:25;;;;;;;0.00;0.00;;;-6.50;99.90;;;;;;5090260;28;20176;-63
2024/01/21 04:43:51;;;;;;;0.00;0.00;;;-6.50;99.90;;;;;;5090187;28;20237;-63
2024/01/21 04:46:16;;;;;;;0.00;0.00;;;-6.50;99.90;;;;;;5089962;28;20181;-64
2024/01/21 04:48:42;;;;;;;0.20;0.20;;;-6.50;99.90;;;;;;5090242;28;20192;-64
2024/01/21 04:51:07;;;;;;;0.70;0.70;;;-6.50;99.90;;;;;;5088857;28;20623;-63
2024/01/21 04:53:33;;;;;;;0.00;0.00;;;-6.50;99.90;;;;;;5090210;28;20198;-64
2024/01/21 04:55:59;;;;;;;0.00;0.00;;;-6.70;99.90;;;;;;5090270;28;20206;-64
2024/01/21 04:58:24;;;;;;;0.43;0.43;;;-6.50;99.90;;;;;;5089943;28;20640;-64
2024/01/21 05:00:50;;;;;;;0.00;0.00;;;-6.40;99.90;;;;;;5089953;28;20187;-63
2024/01/21 05:03:15;;;;;;;0.00;0.00;;;-6.40;99.90;;;;;;5089696;28;20180;-61
2024/01/21 05:05:41;;;;;;;0.23;0.23;;;-6.40;99.90;;;;;;5089591;28;20203;-63
2024/01/21 05:08:06;;;;;;;0.00;0.00;;;-6.40;99.90;;;;;;5090142;28;20249;-62
2024/01/21 05:10:32;;;;;;;0.70;0.30;;;-6.40;99.90;;;;;;5089671;28;20192;-62
2024/01/21 05:12:57;;;;;;;0.00;0.00;;;-6.40;99.90;;;;;;5090092;28;20263;-62
2024/01/21 05:15:23;;;;;;;0.30;0.30;;;-6.30;99.90;;;;;;5088885;28;20194;-62
2024/01/21 05:17:48;;;;;;;0.00;0.00;;;-6.30;99.90;;;;;;5090251;28;20184;-62
2024/01/21 05:20:14;;;;;;;0.23;0.23;;;-6.30;99.90;;;;;;5089838;28;20647;-63
2024/01/21 05:22:39;;;;;;;0.00;0.00;;;-6.30;99.90;;;;;;5090041;28;20191;-63
2024/01/21 05:25:05;;;;;;;0.10;0.10;;;-6.30;99.90;;;;;;5090133;28;20208;-62
2024/01/21 05:27:31;;;;;;;0.00;0.00;;;-6.30;99.90;;;;;;5089905;28;20225;-62
2024/01/21 05:29:57;;;;;;;0.00;0.00;;;-6.30;99.90;;;;;;5089849;28;20180;-62
2024/01/21 05:32:22;;;;;;;0.00;0.00;;;-6.30;99.90;;;;;;5090064;28;20218;-63
2024/01/21 05:34:48;;;;;;;0.00;0.00;;;-6.40;99.90;;;;;;5089956;28;20188;-62
2024/01/21 05:37:13;;;;;;;0.63;0.30;;;-6.40;99.90;;;;;;5090063;28;20229;-62
2024/01/21 05:39:39;;;;;;;0.10;0.10;;;-6.40;99.90;;;;;;5093320;28;20274;-62
2024/01/21 05:42:07;;;;;;;0.10;0.10;;;-6.40;99.90;;;;;;5093820;28;20184;-63
2024/01/21 05:44:33;;;;;;;0.20;0.20;;;-6.40;99.90;;;;;;5093134;28;20679;-62
2024/01/21 05:47:00;;;;;;;0.00;0.00;;;-6.30;99.90;;;;;;5093471;28;20194;-62
2024/01/21 05:49:27;;;;;;;0.00;0.00;;;-6.30;99.90;;;;;;5091081;28;20276;-62
2024/01/21 05:51:52;;;;;;;0.00;0.00;;;-6.30;99.90;;;;;;5093167;28;20203;-62
2024/01/21 05:54:18;;;;;;;0.00;0.00;;;-6.30;99.90;;;;;;5093133;28;20635;-62
2024/01/21 05:56:44;;;;;;;0.03;0.03;;;-6.30;99.90;;;;;;5092949;28;20175;-63
2024/01/21 05:59:10;;;;;;;0.00;0.00;;;-6.30;99.90;;;;;;5092069;28;20191;-63
2024/01/21 06:01:36;;;;;;;0.00;0.00;;;-6.30;99.90;;;;;;5092877;28;20175;-63
2024/01/21 06:04:01;;;;;;;0.53;0.43;;;-6.30;99.90;;;;;;5087696;28;20542;-63
2024/01/21 06:06:27;;;;;;;0.00;0.00;;;-6.30;99.90;;;;;;5087202;28;20287;-63
2024/01/21 06:08:53;;;;;;;0.00;0.00;;;-6.30;99.90;;;;;;5092920;28;20826;-63
2024/01/21 06:11:19;;;;;;;0.00;0.00;;;-6.30;99.90;;;;;;5092950;28;20184;-62
2024/01/21 06:13:45;;;;;;;0.10;0.10;;;-6.30;99.90;;;;;;5092815;28;20176;-63
2024/01/21 06:16:18;;;;;;;0.00;0.00;;;-6.30;99.90;;;;;;5092791;28;20177;-63
2024/01/21 06:18:44;;;;;;;0.40;0.40;;;-6.40;99.90;;;;;;5092588;28;20241;-63
2024/01/21 06:21:09;;;;;;;0.20;0.20;;;-6.40;99.90;;;;;;5092723;28;20639;-63
2024/01/21 06:23:35;;;;;;;0.00;0.00;;;-6.40;99.90;;;;;;5092370;28;20176;-63
2024/01/21 06:26:00;;;;;;;0.00;0.00;;;-6.40;99.90;;;;;;5092749;28;20264;-63
2024/01/21 06:28:26;;;;;;;0.00;0.00;;;-6.40;99.90;;;;;;5092622;28;20225;-63
2024/01/21 06:30:51;;;;;;;0.10;0.10;;;-6.40;99.90;;;;;;5092354;28;20271;-63
2024/01/21 06:33:17;;;;;;;0.00;0.00;;;-6.40;99.90;;;;;;5092392;28;20255;-63
2024/01/21 06:35:43;;;;;;;0.20;0.20;;;-6.40;99.90;;;;;;5092435;28;20509;-63
2024/01/21 06:38:08;;;;;;;0.20;0.20;;;-6.40;99.90;;;;;;5092208;28;20221;-63
2024/01/21 06:40:34;;;;;;;0.00;0.00;;;-6.40;99.90;;;;;;5091964;28;20234;-64
2024/01/21 06:42:59;;;;;;;0.70;0.70;;;-6.40;99.90;;;;;;5092505;28;20196;-64
2024/01/21 06:45:26;;;;;;;0.00;0.00;;;-6.40;99.90;;;;;;5091929;28;20216;-64
2024/01/21 06:47:51;;;;;;;0.50;0.50;;;-6.40;99.90;;;;;;5090446;28;20188;-62
2024/01/21 06:50:17;;;;;;;0.17;0.17;;;-6.40;99.90;;;;;;5079917;28;20169;-63
2024/01/21 06:52:42;;;;;;;0.00;0.00;;;-6.30;99.90;;;;;;5100716;28;20183;-63
2024/01/21 06:55:08;;;;;;;0.00;0.00;;;-6.30;99.90;;;;;;5135636;27;20294;-62
2024/01/21 06:57:34;;;;;;;0.10;0.10;;;-6.30;99.90;;;;;;5100165;28;20175;-62
2024/01/21 06:59:59;;;;;;;2.53;0.77;;;-6.30;99.90;;;;;;5095828;28;20263;-64
2024/01/21 07:02:25;;;;;;;0.00;0.00;;;-6.30;99.90;;;;;;5093308;28;20222;-63
2024/01/21 07:04:50;;;;;;;0.00;0.00;;;-6.20;99.90;;;;;;5091427;28;20249;-62
2024/01/21 07:07:16;;;;;;;0.67;0.67;;;-6.20;99.90;;;;;;5093342;28;20547;-62
2024/01/21 07:09:41;;;;;;;0.10;0.10;;;-6.20;99.90;;;;;;5093429;28;20192;-63
2024/01/21 07:12:08;;;;;;;0.13;0.13;;;-6.20;99.90;;;;;;5098085;28;20176;-63
2024/01/21 07:14:34;;;;;;;0.00;0.00;;;-6.20;99.90;;;;;;5096681;28;20207;-63
2024/01/21 07:17:01;;;;;;;0.00;0.00;;;-6.20;99.90;;;;;;5100102;28;20523;-63
2024/01/21 07:19:27;;;;;;;0.00;0.00;;;-6.20;99.90;;;;;;5092044;28;20184;-63
2024/01/21 07:21:52;;;;;;;0.00;0.00;;;-6.20;99.90;;;;;;5091723;28;20191;-63
2024/01/21 07:24:18;;;;;;;0.00;0.00;;;-6.20;99.90;;;;;;5091444;28;20663;-63
2024/01/21 07:26:43;;;;;;;0.00;0.00;;;-6.20;99.90;;;;;;5091811;28;20548;-62
2024/01/21 07:29:09;;;;;;;0.00;0.00;;;-6.20;99.90;;;;;;5091845;28;20176;-64
2024/01/21 07:31:34;;;;;;;0.00;0.00;;;-6.20;99.90;;;;;;5090146;28;20547;-65
2024/01/21 07:34:00;;;;;;;1.60;1.03;;;-6.20;99.90;;;;;;5091218;28;20156;-65
2024/01/21 07:36:25;;;;;;;0.43;0.43;;;-6.20;99.90;;;;;;5091365;28;20589;-66
2024/01/21 07:38:51;;;;;;;0.10;0.10;;;-6.20;99.90;;;;;;5090193;28;20220;-65
2024/01/21 07:41:16;;;;;;;0.00;0.00;;;-6.10;99.90;;;;;;5091319;28;20191;-65
2024/01/21 07:43:42;;;;;;;0.00;0.00;;;-6.10;99.90;;;;;;5091748;28;20169;-65
2024/01/21 07:46:07;;;;;;;2.00;1.20;;;-6.00;99.90;;;;;;5091676;28;20294;-64
2024/01/21 07:48:34;;;;;;;0.00;0.00;;;-5.90;99.90;;;;;;5090801;28;20200;-66
2024/01/21 07:50:59;;;;;;;0.00;0.00;;;-5.80;99.90;;;;;;5091393;28;20255;-64
2024/01/21 07:53:25;;;;;;;0.00;0.00;;;-5.80;99.90;;;;;;5091300;28;20176;-60
2024/01/21 07:55:53;;;;;;;0.00;0.00;;;-5.70;99.90;;;;;;5090619;28;20194;-66
2024/01/21 07:58:19;;;;;;;0.00;0.00;;;-5.70;99.90;;;;;;5091170;28;20178;-63
2024/01/21 08:00:45;;;;;;;0.00;0.00;;;-5.50;99.90;;;;;;5090332;28;20246;-64
2024/01/21 08:03:11;;;;;;;0.00;0.00;;;-5.50;99.90;;;;;;5091132;28;20176;-60
2024/01/21 08:05:36;;;;;;;0.00;0.00;;;-5.50;99.90;;;;;;5089903;28;20300;-64
2024/01/21 08:08:02;;;;;;;0.43;0.43;;;-5.50;99.90;;;;;;5090863;28;20176;-64
2024/01/21 08:10:28;;;;;;;0.00;0.00;;;-5.40;99.90;;;;;;5090759;28;20172;-61
2024/01/21 08:12:54;;;;;;;0.77;0.77;;;-5.40;99.90;;;;;;5090040;28;20195;-60
2024/01/21 08:15:19;;;;;;;0.00;0.00;;;-5.40;99.90;;;;;;5090547;28;20176;-61
2024/01/21 08:17:45;;;;;;;0.00;0.00;;;-5.40;99.90;;;;;;5089267;28;20184;-61
2024/01/21 08:20:11;;;;;;;0.40;0.40;;;-5.30;99.90;;;;;;5090419;28;20169;-64
2024/01/21 08:22:37;;;;;;;0.00;0.00;;;-5.30;99.90;;;;;;5090322;28;20180;-59
2024/01/21 08:25:03;;;;;;;0.20;0.20;;;-5.20;99.90;;;;;;5090238;28;20577;-62
2024/01/21 08:27:31;;;;;;;0.00;0.00;;;-5.10;99.90;;;;;;5093904;28;20176;-62
2024/01/21 08:29:56;;;;;;;0.00;0.00;;;-5.10;99.90;;;;;;5092338;28;20160;-59
2024/01/21 08:32:22;;;;;;;0.10;0.10;;;-5.00;99.90;;;;;;5090757;28;20173;-62
2024/01/21 08:34:47;;;;;;;0.10;0.10;;;-4.90;99.90;;;;;;5090410;28;20182;-61
2024/01/21 08:37:13;;;;;;;0.00;0.00;;;-4.90;99.90;;;;;;5090659;28;20525;-62
2024/01/21 08:39:38;;;;;;;0.20;0.20;;;-4.90;99.90;;;;;;5089987;28;20261;-62
2024/01/21 08:42:05;;;;;;;0.00;0.00;;;-4.70;99.90;;;;;;5089473;28;20233;-64
2024/01/21 08:44:30;;;;;;;0.00;0.00;;;-4.70;99.90;;;;;;5088954;28;20203;-63
2024/01/21 08:46:56;;;;;;;0.00;0.00;;;-4.60;99.90;;;;;;5090358;28;20654;-63
2024/01/21 08:49:22;;;;;;;0.13;0.13;;;-4.60;99.90;;;;;;5088992;28;20168;-64
2024/01/21 08:51:48;;;;;;;0.00;0.00;;;-4.60;99.90;;;;;;5090103;28;20180;-63
2024/01/21 08:54:13;;;;;;;0.00;0.00;;;-4.60;99.90;;;;;;5090275;28;20172;-63
2024/01/21 08:56:39;;;;;;;0.20;0.20;;;-4.50;99.90;;;;;;5090705;28;20662;-63
2024/01/21 08:59:04;;;;;;;0.00;0.00;;;-4.50;99.90;;;;;;5090582;28;20211;-63
2024/01/21 09:01:30;;;;;;;0.10;0.10;;;-4.40;99.90;;;;;;5090419;28;20177;-63
2024/01/21 09:03:55;;;;;;;0.00;0.00;;;-4.40;99.90;;;;;;5089004;28;20179;-64
2024/01/21 09:06:22;;;;;;;0.00;0.00;;;-4.30;99.90;;;;;;5090333;28;20239;-63
2024/01/21 09:08:51;;;;;;;0.00;0.00;;;-4.30;99.90;;;;;;5090255;28;20590;-63
2024/01/21 09:11:17;;;;;;;0.00;0.00;;;-4.20;99.90;;;;;;5102282;28;20191;-63
2024/01/21 09:13:43;;;;;;;0.00;0.00;;;-4.10;99.90;;;;;;5113241;28;20224;-63
2024/01/21 09:16:09;;;;;;;0.07;0.07;;;-4.00;99.90;;;;;;5113299;28;20224;-63
2024/01/21 09:18:35;;;;;;;0.00;0.00;;;-4.00;99.90;;;;;;5101149;27;20195;-63
2024/01/21 09:21:00;;;;;;;0.03;0.03;;;-4.00;99.90;;;;;;5094400;28;20253;-64
2024/01/21 09:23:27;;;;;;;0.43;0.43;;;-3.90;99.90;;;;;;5082937;28;20196;-64
2024/01/21 09:25:52;;;;;;;0.20;0.20;;;-3.80;99.90;;;;;;5093992;28;20207;-64
2024/01/21 09:28:18;;;;;;;0.00;0.00;;;-3.70;99.90;;;;;;5094003;28;20202;-65
2024/01/21 09:30:43;;;;;;;0.00;0.00;;;-3.70;99.90;;;;;;5093831;28;20541;-67
2024/01/21 09:33:09;;;;;;;0.67;0.67;;;-3.60;99.90;;;;;;5087370;28;20192;-62
2024/01/21 09:35:34;;;;;;;0.00;0.00;;;-3.50;99.90;;;;;;5093325;28;20176;-61
2024/01/21 09:38:00;;;;;;;0.30;0.30;;;-3.50;99.90;;;;;;5092865;28;20251;-60
2024/01/21 09:40:25;;;;;;;0.60;0.60;;;-3.40;99.90;;;;;;5093156;28;20216;-60
2024/01/21 09:42:51;;;;;;;0.00;0.00;;;-3.30;99.90;;;;;;5093261;28;20185;-58
2024/01/21 09:45:19;;;;;;;0.00;0.00;;;-3.20;99.90;;;;;;5095813;28;20226;-64
2024/01/21 09:47:47;;;;;;;0.00;0.00;;;-3.10;99.90;;;;;;5093063;28;20184;-64
2024/01/21 09:50:14;;;;;;;0.00;0.00;;;-3.00;99.90;;;;;;5092892;28;20241;-64
2024/01/21 09:52:40;;;;;;;0.10;0.10;;;-2.90;99.90;;;;;;5093050;28;20172;-64
2024/01/21 09:55:06;;;;;;;0.00;0.00;;;-2.90;99.90;;;;;;5093038;28;20183;-64
2024/01/21 09:57:32;;;;;;;0.30;0.30;;;-2.80;99.90;;;;;;5093254;28;20177;-65
2024/01/21 09:59:58;;;;;;;0.00;0.00;;;-2.70;99.90;;;;;;5092584;28;20184;-64
2024/01/21 10:02:25;;;;;;;0.73;0.73;;;-2.70;99.90;;;;;;5092632;28;20168;-64
2024/01/21 10:04:51;;;;;;;0.00;0.00;;;-2.70;99.90;;;;;;5090443;28;20682;-66
2024/01/21 10:07:17;;;;;;;0.00;0.00;;;-2.70;99.90;;;;;;5090312;28;20188;-65
2024/01/21 10:09:50;;;;;;;0.00;0.00;;;-2.70;99.90;;;;;;5090117;28;20180;-64
2024/01/21 10:12:17;;;;;;;0.10;0.10;;;-2.60;99.90;;;;;;5090592;28;20172;-64
2024/01/21 10:14:43;;;;;;;0.00;0.00;;;-2.60;99.90;;;;;;5093154;28;20183;-65
2024/01/21 10:17:08;;;;;;;0.00;0.00;;;-2.60;99.90;;;;;;5093100;28;20636;-64
2024/01/21 10:19:34;;;;;;;0.00;0.00;;;-2.50;99.90;;;;;;5092486;28;20555;-64
2024/01/21 10:22:11;;;;;;;0.17;0.17;;;-2.40;99.90;;;;;;5090444;28;20197;-65
2024/01/21 10:24:48;;;;;;;0.10;0.10;;;-2.30;99.90;;;;;;5090689;28;20200;-63
2024/01/21 10:27:15;;;;;;;0.00;0.00;;;-2.20;99.90;;;;;;5092886;28;20746;-65
2024/01/21 10:29:43;;;;;;;0.00;0.00;;;-2.20;99.90;;;;;;5092708;28;20222;-64
2024/01/21 10:32:09;;;;;;;0.00;0.00;;;-2.10;99.90;;;;;;5092954;28;20180;-64
2024/01/21 10:34:37;;;;;;;0.00;0.00;;;-2.20;99.90;;;;;;5092447;28;20318;-64
2024/01/21 10:37:04;;;;;;;0.00;0.00;;;-2.10;99.90;;;;;;5092670;28;20168;-65
2024/01/21 10:39:32;;;;;;;0.20;0.20;;;-2.10;99.90;;;;;;5092032;28;20236;-64
2024/01/21 10:41:59;;;;;;;0.00;0.00;;;-2.10;99.90;;;;;;5092571;28;20194;-64
2024/01/21 10:44:26;;;;;;;0.20;0.20;;;-2.00;99.90;;;;;;5092582;28;20206;-65
2024/01/21 10:46:54;;;;;;;0.00;0.00;;;-2.00;99.90;;;;;;5092659;28;20180;-64
2024/01/21 10:49:20;;;;;;;0.00;0.00;;;-1.90;99.90;;;;;;5092246;28;20173;-65
2024/01/21 10:51:46;;;;;;;0.00;0.00;;;-1.80;99.90;;;;;;5092387;28;20191;-64
2024/01/21 10:54:16;;;;;;;0.00;0.00;;;-1.70;99.90;;;;;;5092589;28;20196;-64
2024/01/21 10:56:42;;;;;;;0.00;0.00;;;-1.70;99.90;;;;;;5092295;28;20665;-65
2024/01/21 10:59:12;;;;;;;0.00;0.00;;;-1.60;99.90;;;;;;5091395;28;20169;-64
2024/01/21 11:01:40;;;;;;;0.00;0.00;;;-1.60;99.90;;;;;;5091067;28;20683;-65
2024/01/21 11:04:11;;;;;;;0.00;0.00;;;-1.50;99.90;;;;;;5092221;28;20631;-64
2024/01/21 11:06:44;;;;;;;0.30;0.30;;;-1.50;99.90;;;;;;5092143;28;20184;-64
2024/01/21 11:09:10;;;;;;;0.00;0.00;;;-1.50;99.90;;;;;;5090333;28;20263;-65
2024/01/21 11:11:43;;;;;;;0.00;0.00;;;-1.40;99.90;;;;;;5090182;28;20200;-65
2024/01/21 11:14:34;;;;;;;0.00;0.00;;;-1.40;99.90;;;;;;5091506;28;20206;-65
2024/01/21 11:17:04;;;;;;;0.00;0.00;;;-1.40;99.90;;;;;;5091665;28;20180;-65
2024/01/21 11:19:50;;;;;;;0.00;0.00;;;-1.50;99.90;;;;;;5082411;28;20187;-64
2024/01/21 11:22:20;;;;;;;0.00;0.00;;;-1.50;99.90;;;;;;5076960;28;20188;-64
2024/01/21 11:24:45;;;;;;;0.30;0.30;;;-1.50;99.90;;;;;;5088986;28;20224;-64
2024/01/21 11:27:16;;;;;;;0.03;0.03;;;-1.50;99.90;;;;;;5090365;28;20643;-64
2024/01/21 11:29:43;;;;;;;0.00;0.00;;;-1.40;99.90;;;;;;5091236;28;20185;-63
2024/01/21 11:32:09;;;;;;;0.00;0.00;;;-1.40;99.90;;;;;;5091765;28;20565;-64
2024/01/21 11:34:39;;;;;;;0.00;0.00;;;-1.30;99.90;;;;;;5090366;28;20172;-64
2024/01/21 11:37:09;;;;;;;0.00;0.00;;;-1.30;99.90;;;;;;5090279;28;20172;-64
2024/01/21 11:39:35;;;;;;;0.00;0.00;;;-1.20;99.90;;;;;;5089154;28;20579;-64
2024/01/21 11:42:01;;;;;;;0.13;0.13;;;-1.20;99.90;;;;;;5091039;28;20205;-63
2024/01/21 11:44:29;;;;;;;0.00;0.00;;;-1.00;99.90;;;;;;5071446;28;20610;-64
2024/01/21 11:46:57;;;;;;;0.00;0.00;;;-1.00;99.90;;;;;;5091012;28;20193;-64
2024/01/21 11:49:23;;;;;;;0.00;0.00;;;-0.80;99.90;;;;;;5090974;28;20167;-64
2024/01/21 11:51:50;;;;;;;0.00;0.00;;;-0.70;99.90;;;;;;5091457;28;20268;-64
2024/01/21 11:54:20;;;;;;;0.00;0.00;;;-0.50;99.90;;;;;;5076833;28;20808;-64
2024/01/21 11:56:45;;;;;;;0.00;0.00;;;-0.40;99.90;;;;;;5090948;28;20944;-63
2024/01/21 11:59:12;;;;;;;0.00;0.00;;;-0.40;99.90;;;;;;5091158;28;20261;-64
2024/01/21 12:01:39;;;;;;;0.00;0.00;;;-0.30;99.90;;;;;;5090959;28;20192;-62
2024/01/21 12:04:07;;;;;;;0.03;0.03;;;-0.30;99.90;;;;;;5090167;28;20176;-60
2024/01/21 12:06:43;;;;;;;0.00;0.00;;;-0.20;99.90;;;;;;5091131;28;20180;-64
2024/01/21 12:09:10;;;;;;;0.00;0.00;;;-0.20;99.90;;;;;;5091378;28;20208;-64
2024/01/21 12:11:37;;;;;;;0.00;0.00;;;-0.10;99.90;;;;;;5090771;28;20523;-64
2024/01/21 12:14:09;;;;;;;0.00;0.00;;;0.00;99.90;;;;;;5091198;28;20180;-63
2024/01/21 12:16:35;;;;;;;0.00;0.00;;;0.10;99.90;;;;;;5089329;28;20192;-63
2024/01/21 12:19:02;;;;;;;0.00;0.00;;;0.10;99.90;;;;;;5088213;28;20266;-63
2024/01/21 12:21:29;;;;;;;0.05;0.05;;;0.20;99.90;;;;;;5070761;28;20230;-64
2024/01/21 12:23:57;;;;;;;0.00;0.00;;;0.30;99.90;;;;;;5092103;28;20219;-64
2024/01/21 12:26:24;;;;;;;0.30;0.30;;;0.50;99.90;;;;;;5090320;28;20243;-64
2024/01/21 12:28:55;;;;;;;0.00;0.00;;;0.60;99.90;;;;;;5091769;28;20635;-63
2024/01/21 12:31:24;;;;;;;0.10;0.10;;;0.80;99.90;;;;;;5090871;28;20168;-64
2024/01/21 12:33:49;;;;;;;0.00;0.00;;;1.00;99.90;;;;;;5090742;28;20237;-64
2024/01/21 12:36:15;;;;;;;0.00;0.00;;;1.20;99.90;;;;;;5090858;28;20173;-64
2024/01/21 12:38:41;;;;;;;0.00;0.00;;;1.40;99.90;;;;;;5090550;28;20193;-64
2024/01/21 12:41:07;;;;;;;0.00;0.00;;;1.50;99.90;;;;;;5090427;28;20257;-65
2024/01/21 12:43:33;;;;;;;0.13;0.13;;;1.60;99.90;;;;;;5090600;28;20196;-65